CYKD

Aklavik Airport

Aklavik, , Canada
METAR CYKD 170000Z 34002KT 15SM -SN OVC009 M13/M15 A2941 RMK ST8 TR/SNW CVR/MUCH LOOSE/LAST STFD OBS/NXT 171500Z SLP962
Observed Flight Rules
Dec-17 @ 00:00 UTC (3 hours ago) Instrument Flight Rules
Wind Visibility Clouds Conditions
340° at 2 knots 15 miles
  • Overcast at 900' AGL
  • Light Snow
Temperatures Readings
Current -13°C / 9°F
Dewpoint -15°C / 5°F
Humidity 85%
Altimeter 29.41" Hg
Pressure 996.2 hPa
Elevation 7
METAR CYKD 170000Z 34002KT 15SM -SN OVC009 M13/M15 A2941 RMK ST8 TR/SNW CVR/MUCH LOOSE/LAST STFD OBS/NXT 171500Z SLP962
Observed Flight Rules
Dec-17 @ 00:00 UTC
(3 hours ago)
IFR
Wind Visibility
340° at 2 knots 15 miles
Clouds
  • Overcast at 900' AGL
Conditions
  • Light Snow
Temperature Dewpoint
-13°C / 9°F -15°C / 5°F
Humidity Altimeter Pressure
85% 29.41" Hg 996.2 hPa